Time;durP1;ratioP1;P1;durP2;ratioP2;P2;SDS_P1;SDS_P2;PMS_P1;PMS_P2;Temp;Humidity;BMP_temperature;BMP_pressure;BME280_temperature;BME280_humidity;BME280_pressure;Samples;Min_cycle;Max_cycle;Signal;HPM_P1;HPM_P2
2023/06/04 00:00:05;;;;;;;5.10;2.70;;;;;;;12.93;49.99;101914.38;5048793;28;20040;-86
2023/06/04 00:02:30;;;;;;;4.35;3.20;;;;;;;12.88;50.37;101911.91;5050303;28;20021;-88
2023/06/04 00:04:56;;;;;;;4.68;2.90;;;;;;;12.86;50.67;101910.22;5026542;28;20098;-86
2023/06/04 00:07:21;;;;;;;7.22;3.22;;;;;;;12.88;50.68;101905.69;5049492;28;20107;-88
2023/06/04 00:09:47;;;;;;;6.03;2.70;;;;;;;12.79;51.31;101914.06;5024404;28;20040;-85
2023/06/04 00:12:13;;;;;;;3.67;2.80;;;;;;;12.76;51.64;101909.75;5051572;28;20423;-84
2023/06/04 00:14:38;;;;;;;4.43;2.72;;;;;;;12.77;51.86;101908.81;5049140;28;20036;-86
2023/06/04 00:17:04;;;;;;;4.30;2.63;;;;;;;12.74;52.00;101908.06;5041876;28;20027;-85
2023/06/04 00:19:30;;;;;;;3.45;2.40;;;;;;;12.77;52.34;101908.81;5046992;28;20033;-87
2023/06/04 00:21:55;;;;;;;4.45;2.55;;;;;;;12.66;52.65;101903.91;5048507;28;20029;-83
2023/06/04 00:24:20;;;;;;;5.20;3.20;;;;;;;12.63;53.02;101900.53;5047076;28;20464;-86
2023/06/04 00:26:46;;;;;;;3.35;2.63;;;;;;;12.62;53.16;101912.13;5047193;28;20083;-86
2023/06/04 00:29:12;;;;;;;3.95;2.70;;;;;;;12.74;53.11;101910.75;5032496;28;20025;-86
2023/06/04 00:31:37;;;;;;;3.47;2.47;;;;;;;12.63;53.54;101896.06;5047710;28;20518;-86
2023/06/04 00:34:03;;;;;;;4.05;2.90;;;;;;;12.66;54.02;101901.25;5043767;28;20043;-86
2023/06/04 00:36:29;;;;;;;4.40;2.92;;;;;;;12.65;54.08;101898.66;5053888;28;20024;-85
2023/06/04 00:38:54;;;;;;;4.38;2.78;;;;;;;12.56;54.61;101905.25;5048768;28;20021;-85
2023/06/04 00:41:20;;;;;;;4.10;2.78;;;;;;;12.60;54.64;101911.34;5047615;28;20025;-83
2023/06/04 00:43:55;;;;;;;3.65;2.50;;;;;;;12.61;54.72;101900.56;5044218;28;20047;-85
2023/06/04 00:46:21;;;;;;;3.97;2.40;;;;;;;12.63;54.80;101906.75;5047216;28;20075;-83
2023/06/04 00:48:47;;;;;;;4.15;2.63;;;;;;;12.59;55.15;101899.78;5044307;28;20631;-83
2023/06/04 00:51:12;;;;;;;3.50;2.60;;;;;;;12.49;55.67;101913.59;5028857;28;20029;-82
2023/06/04 00:53:39;;;;;;;3.58;2.40;;;;;;;12.45;55.81;101902.16;5041294;28;20090;-83
2023/06/04 00:56:05;;;;;;;5.43;2.65;;;;;;;12.50;56.13;101899.28;5045270;28;20120;-82
2023/06/04 00:58:31;;;;;;;4.18;2.70;;;;;;;12.42;56.39;101900.50;5046052;28;20591;-87
2023/06/04 01:01:04;;;;;;;3.45;2.80;;;;;;;12.31;56.86;101894.72;5045669;28;20025;-85
2023/06/04 01:03:35;;;;;;;2.92;2.60;;;;;;;12.38;56.76;101901.56;5042975;28;20025;-80
2023/06/04 01:06:13;;;;;;;4.60;2.63;;;;;;;12.29;57.14;101890.38;5043356;28;20025;-86
2023/06/04 01:08:42;;;;;;;3.58;2.33;;;;;;;12.16;57.98;101888.22;5041734;28;20033;-83
2023/06/04 01:11:08;;;;;;;6.13;2.90;;;;;;;12.16;58.06;101896.25;5027051;28;20049;-85
2023/06/04 01:13:33;;;;;;;4.18;2.55;;;;;;;12.16;58.11;101898.00;5022488;28;20076;-85
2023/06/04 01:15:59;;;;;;;2.80;2.38;;;;;;;12.16;58.63;101908.69;5022759;28;20067;-85
2023/06/04 01:18:27;;;;;;;6.03;2.83;;;;;;;12.14;58.96;101899.91;5046627;28;20087;-85
2023/06/04 01:21:08;;;;;;;2.58;2.35;;;;;;;12.13;58.67;101903.50;5046185;28;20052;-84
2023/06/04 01:23:45;;;;;;;4.28;2.70;;;;;;;12.14;58.81;101907.91;5037737;28;20044;-86
2023/06/04 01:26:12;;;;;;;3.22;2.55;;;;;;;12.00;59.72;101915.56;5041652;28;20025;-84
2023/06/04 01:28:37;;;;;;;3.75;2.72;;;;;;;12.08;59.79;101913.47;5010605;28;20036;-83
2023/06/04 01:31:04;;;;;;;2.88;2.53;;;;;;;11.96;60.39;101918.38;5048707;28;20511;-85
2023/06/04 01:33:29;;;;;;;4.20;2.55;;;;;;;11.92;60.35;101908.75;5047215;28;20552;-83
2023/06/04 01:35:55;;;;;;;4.32;2.78;;;;;;;11.88;60.79;101911.63;5048168;28;20459;-84
2023/06/04 01:38:21;;;;;;;3.72;2.58;;;;;;;11.85;61.42;101911.72;5049891;28;20021;-84
2023/06/04 01:40:46;;;;;;;4.07;2.17;;;;;;;11.83;61.34;101914.47;5049358;28;20052;-87
2023/06/04 01:43:12;;;;;;;4.30;2.53;;;;;;;11.84;61.57;101920.66;5025947;28;20112;-85
2023/06/04 01:45:38;;;;;;;2.70;2.20;;;;;;;11.75;62.33;101913.84;5049251;28;20514;-87
2023/06/04 01:48:05;;;;;;;3.92;2.53;;;;;;;11.80;61.75;101908.34;5045512;28;20028;-85
2023/06/04 01:50:30;;;;;;;3.90;2.40;;;;;;;11.75;62.32;101905.00;5046634;28;20074;-82
2023/06/04 01:52:56;;;;;;;4.57;2.65;;;;;;;11.81;62.12;101910.94;5030871;28;20047;-87
2023/06/04 01:55:22;;;;;;;3.90;2.47;;;;;;;11.70;62.48;101911.38;5028841;28;20044;-87
2023/06/04 01:57:48;;;;;;;3.70;2.55;;;;;;;11.78;62.44;101905.72;5047346;28;20025;-87
2023/06/04 02:00:14;;;;;;;5.03;2.85;;;;;;;11.57;63.28;101904.75;5048210;28;20040;-85
2023/06/04 02:02:46;;;;;;;4.75;2.47;;;;;;;11.64;62.94;101905.38;5051605;28;20036;-84
2023/06/04 02:05:11;;;;;;;3.03;2.33;;;;;;;11.55;63.47;101908.41;5051639;28;20021;-84
2023/06/04 02:07:38;;;;;;;3.13;2.22;;;;;;;11.65;63.17;101909.78;5022655;28;20032;-79
2023/06/04 02:10:08;;;;;;;3.45;2.75;;;;;;;11.64;63.32;101911.59;5044360;28;20021;-80
2023/06/04 02:12:36;;;;;;;3.75;2.53;;;;;;;11.59;63.27;101902.03;5036176;28;20060;-84
2023/06/04 02:15:02;;;;;;;3.88;2.67;;;;;;;11.57;63.46;101906.53;5047010;28;20040;-82
2023/06/04 02:17:32;;;;;;;4.63;2.53;;;;;;;11.59;63.73;101910.91;5041561;28;20025;-84
2023/06/04 02:19:58;;;;;;;3.22;2.40;;;;;;;11.56;64.04;101899.47;5041081;28;20025;-82
2023/06/04 02:22:25;;;;;;;4.90;2.72;;;;;;;11.48;64.23;101905.97;5046132;28;20021;-84
2023/06/04 02:24:51;;;;;;;3.28;2.53;;;;;;;11.38;64.57;101898.38;5045847;28;20028;-87
2023/06/04 02:27:17;;;;;;;3.53;2.83;;;;;;;11.31;64.96;101899.53;5052369;28;20029;-84
2023/06/04 02:29:42;;;;;;;3.63;2.70;;;;;;;11.25;65.00;101897.97;5049997;28;20379;-85
2023/06/04 02:32:08;;;;;;;3.45;2.53;;;;;;;11.27;65.53;101904.09;5046321;28;20041;-84
2023/06/04 02:34:34;;;;;;;2.65;2.42;;;;;;;11.22;65.65;101903.41;5030291;28;20490;-86
2023/06/04 02:37:00;;;;;;;2.72;2.47;;;;;;;11.23;65.49;101908.66;5030045;28;20033;-84
2023/06/04 02:39:26;;;;;;;3.60;2.47;;;;;;;11.28;65.54;101902.31;5030201;28;20029;-86
2023/06/04 02:41:51;;;;;;;2.92;2.63;;;;;;;11.21;65.59;101904.34;5044154;28;20029;-83
2023/06/04 02:44:17;;;;;;;4.32;2.67;;;;;;;11.21;65.13;101904.34;5044673;28;20304;-85
2023/06/04 02:46:43;;;;;;;3.40;2.35;;;;;;;11.14;66.02;101905.47;5046505;28;20583;-82
2023/06/04 02:49:09;;;;;;;4.63;2.60;;;;;;;11.16;65.98;101901.84;5046280;28;20032;-84
2023/06/04 02:51:35;;;;;;;3.30;3.00;;;;;;;11.05;66.44;101903.16;5045974;28;20028;-83
2023/06/04 02:54:00;;;;;;;4.70;3.30;;;;;;;11.02;66.96;101904.13;5045097;28;20411;-84
2023/06/04 02:56:26;;;;;;;3.97;2.42;;;;;;;11.02;66.92;101905.91;5046414;28;20477;-82
2023/06/04 02:58:55;;;;;;;5.43;2.78;;;;;;;10.98;67.10;101907.81;5046561;28;20033;-84
2023/06/04 03:01:22;;;;;;;4.40;2.45;;;;;;;10.96;67.27;101899.91;5047157;28;20032;-84
2023/06/04 03:03:48;;;;;;;3.95;2.92;;;;;;;10.90;67.54;101905.41;5049022;28;20021;-85
2023/06/04 03:06:14;;;;;;;4.18;2.90;;;;;;;10.82;67.88;101907.47;5028835;28;20044;-83
2023/06/04 03:08:41;;;;;;;3.22;2.58;;;;;;;10.82;67.84;101909.28;5048911;28;20032;-82
2023/06/04 03:11:06;;;;;;;4.60;2.70;;;;;;;10.84;67.76;101905.66;5049975;28;20331;-84
2023/06/04 03:13:32;;;;;;;4.40;2.88;;;;;;;10.77;68.42;101912.09;5032285;28;20558;-83
2023/06/04 03:16:00;;;;;;;5.38;2.92;;;;;;;10.78;68.25;101910.31;5050187;28;20035;-81
2023/06/04 03:18:26;;;;;;;4.45;2.60;;;;;;;10.76;68.40;101909.50;5054881;28;20029;-83
2023/06/04 03:20:52;;;;;;;2.88;2.67;;;;;;;10.75;68.40;101907.78;5035355;28;20558;-83
2023/06/04 03:23:18;;;;;;;4.03;2.75;;;;;;;10.71;69.14;101909.66;5032288;28;20036;-85
2023/06/04 03:25:44;;;;;;;4.55;3.13;;;;;;;10.72;69.05;101901.63;5050656;28;20123;-82
2023/06/04 03:28:09;;;;;;;4.40;2.75;;;;;;;10.70;69.04;101905.25;5049231;28;20068;-86
2023/06/04 03:30:35;;;;;;;3.53;2.70;;;;;;;10.60;68.88;101902.03;5054332;28;20506;-85
2023/06/04 03:33:00;;;;;;;4.03;3.00;;;;;;;10.53;69.94;101910.28;5049304;28;20139;-83
2023/06/04 03:35:26;;;;;;;3.38;2.90;;;;;;;10.53;70.05;101905.81;5050374;28;20068;-85
2023/06/04 03:37:51;;;;;;;3.90;2.95;;;;;;;10.56;69.88;101911.03;5045706;28;20108;-80
2023/06/04 03:40:16;;;;;;;3.67;3.30;;;;;;;10.49;70.43;101904.19;5047590;28;20032;-84
2023/06/04 03:42:42;;;;;;;3.38;3.08;;;;;;;10.49;70.41;101909.50;5045277;28;20144;-84
2023/06/04 03:45:08;;;;;;;3.83;3.20;;;;;;;10.46;70.59;101905.16;5047300;28;20466;-84
2023/06/04 03:47:33;;;;;;;4.25;3.47;;;;;;;10.50;70.54;101905.94;5041762;28;20033;-84
2023/06/04 03:49:58;;;;;;;5.53;3.13;;;;;;;10.36;71.08;101908.19;5027235;28;20082;-81
2023/06/04 03:52:24;;;;;;;4.18;3.22;;;;;;;10.27;71.29;101901.38;5043010;28;20036;-82
2023/06/04 03:54:50;;;;;;;5.95;3.28;;;;;;;10.40;70.98;101909.81;5046273;28;20659;-82
2023/06/04 03:57:15;;;;;;;4.93;3.22;;;;;;;10.38;71.05;101909.00;5019829;28;20039;-84
2023/06/04 03:59:41;;;;;;;4.97;3.30;;;;;;;10.28;71.71;101895.13;5022927;28;20112;-85
2023/06/04 04:02:06;;;;;;;5.07;3.35;;;;;;;10.28;71.84;101908.41;5040646;28;20047;-81
2023/06/04 04:04:33;;;;;;;4.68;3.20;;;;;;;10.33;72.10;101910.97;5044802;28;20501;-83
2023/06/04 04:07:00;;;;;;;4.82;3.30;;;;;;;10.28;72.38;101907.56;5045673;28;20017;-83
2023/06/04 04:09:25;;;;;;;4.97;3.22;;;;;;;10.26;72.40;101912.06;5046634;28;20083;-85
2023/06/04 04:11:51;;;;;;;4.80;3.35;;;;;;;10.31;72.10;101916.31;5025241;28;20049;-83
2023/06/04 04:14:16;;;;;;;4.30;3.08;;;;;;;10.25;72.75;101911.22;5046535;28;20035;-85
2023/06/04 04:16:41;;;;;;;5.85;3.90;;;;;;;10.30;72.76;101917.25;5045818;28;20541;-82
2023/06/04 04:19:07;;;;;;;4.40;3.65;;;;;;;10.33;72.75;101911.81;5042082;28;20025;-83
2023/06/04 04:21:36;;;;;;;4.72;3.65;;;;;;;10.29;72.89;101912.84;5041563;28;20041;-85
2023/06/04 04:24:02;;;;;;;5.95;3.70;;;;;;;10.42;72.58;101922.16;5049068;28;20021;-81
2023/06/04 04:26:28;;;;;;;5.85;3.72;;;;;;;10.39;72.81;101913.41;5038614;28;20033;-80
2023/06/04 04:28:57;;;;;;;4.10;3.38;;;;;;;10.39;72.88;101919.59;5044752;28;20111;-83
2023/06/04 04:31:24;;;;;;;4.72;4.00;;;;;;;10.38;72.97;101923.19;5042424;28;20028;-80
2023/06/04 04:33:51;;;;;;;5.75;3.97;;;;;;;10.38;72.67;101917.00;5038741;28;20034;-81
2023/06/04 04:36:18;;;;;;;4.72;3.75;;;;;;;10.42;73.05;101923.97;5043444;28;20025;-84
2023/06/04 04:38:44;;;;;;;5.13;3.72;;;;;;;10.54;72.97;101928.88;5046449;28;20028;-83
2023/06/04 04:41:11;;;;;;;5.15;3.53;;;;;;;10.51;73.03;101923.66;5027461;28;20013;-82
2023/06/04 04:43:39;;;;;;;5.35;3.70;;;;;;;10.44;73.30;101920.31;5026659;28;20033;-85
2023/06/04 04:46:05;;;;;;;4.65;3.92;;;;;;;10.53;72.86;101923.59;5048286;28;20024;-82
2023/06/04 04:48:30;;;;;;;5.68;3.55;;;;;;;10.60;72.53;101917.16;5048663;28;20402;-82
2023/06/04 04:50:56;;;;;;;5.80;3.60;;;;;;;10.68;72.68;101934.59;5046525;28;20032;-84
2023/06/04 04:53:21;;;;;;;6.57;3.20;;;;;;;10.62;72.71;101920.63;5048487;28;20021;-83
2023/06/04 04:55:47;;;;;;;4.35;3.10;;;;;;;10.76;72.82;101922.81;5046708;28;20082;-83
2023/06/04 04:58:13;;;;;;;5.95;3.10;;;;;;;10.84;72.43;101918.97;5046832;28;20479;-82
2023/06/04 05:00:38;;;;;;;4.10;3.30;;;;;;;10.94;72.05;101914.19;5045780;28;20488;-82
2023/06/04 05:03:04;;;;;;;3.83;3.47;;;;;;;11.06;71.77;101915.53;5044392;28;20065;-80
2023/06/04 05:05:29;;;;;;;5.28;3.15;;;;;;;11.18;71.44;101915.09;5044477;28;20064;-80
2023/06/04 05:07:54;;;;;;;3.83;3.00;;;;;;;11.26;70.94;101918.38;5048119;28;20029;-80
2023/06/04 05:10:20;;;;;;;4.40;3.35;;;;;;;11.36;70.98;101919.75;5041352;28;20024;-80
2023/06/04 05:12:57;;;;;;;3.38;3.08;;;;;;;11.36;70.20;101919.75;5039189;28;20763;-83
2023/06/04 05:15:24;;;;;;;3.30;3.00;;;;;;;11.45;69.89;101924.75;5038573;28;20024;-85
2023/06/04 05:17:52;;;;;;;4.32;3.13;;;;;;;11.58;69.15;101924.28;5043158;28;20020;-82
2023/06/04 05:20:18;;;;;;;5.20;3.28;;;;;;;11.58;68.62;101930.50;5044546;28;20083;-84
2023/06/04 05:22:45;;;;;;;5.85;3.35;;;;;;;11.74;68.70;101930.75;5042490;28;20025;-85
2023/06/04 05:25:11;;;;;;;4.85;3.30;;;;;;;11.86;68.70;101929.47;5024137;28;20090;-84
2023/06/04 05:27:36;;;;;;;5.70;3.10;;;;;;;11.94;67.65;101930.91;5044233;28;20024;-81
2023/06/04 05:30:03;;;;;;;5.32;3.50;;;;;;;12.09;67.40;101934.78;5042805;28;20064;-84
2023/06/04 05:32:29;;;;;;;4.80;3.08;;;;;;;12.20;66.83;101934.31;5043847;28;20506;-85
2023/06/04 05:34:56;;;;;;;4.43;3.10;;;;;;;12.27;67.05;101921.63;5045126;28;20021;-84
2023/06/04 05:37:23;;;;;;;4.00;3.25;;;;;;;12.36;66.34;101924.75;5043472;28;20033;-84
2023/06/04 05:39:50;;;;;;;5.22;3.22;;;;;;;12.35;65.00;101916.84;5031722;28;20356;-85
2023/06/04 05:42:16;;;;;;;4.80;3.00;;;;;;;12.46;65.27;101920.81;5042301;28;20032;-84
2023/06/04 05:44:41;;;;;;;5.60;3.40;;;;;;;12.60;65.28;101924.69;5017783;28;20063;-82
2023/06/04 05:47:06;;;;;;;4.57;3.20;;;;;;;12.73;64.65;101920.56;5012157;28;20028;-82
2023/06/04 05:49:34;;;;;;;6.57;3.20;;;;;;;12.81;63.41;101917.56;5045974;28;20023;-84
2023/06/04 05:52:00;;;;;;;3.83;3.10;;;;;;;12.98;63.43;101916.84;5042600;28;20108;-84
2023/06/04 05:54:27;;;;;;;3.97;2.83;;;;;;;13.16;63.11;101918.69;5028058;28;20108;-82
2023/06/04 05:56:52;;;;;;;7.50;3.30;;;;;;;13.21;61.82;101920.22;5016405;28;20470;-81
2023/06/04 05:59:17;;;;;;;4.80;2.92;;;;;;;13.33;61.24;101928.66;5052229;28;20055;-82
2023/06/04 06:01:43;;;;;;;4.18;2.97;;;;;;;13.59;61.12;101935.50;5043646;28;20029;-83
2023/06/04 06:04:08;;;;;;;5.00;2.90;;;;;;;13.75;59.64;101935.63;5039264;28;20021;-83
2023/06/04 06:06:35;;;;;;;5.00;2.80;;;;;;;13.99;59.51;101933.63;5043382;28;20095;-80
2023/06/04 06:09:00;;;;;;;3.85;3.13;;;;;;;14.07;58.91;101936.81;5037988;28;20025;-80
2023/06/04 06:11:26;;;;;;;4.55;3.10;;;;;;;14.23;58.24;101924.41;5046984;28;20041;-84
2023/06/04 06:13:52;;;;;;;6.07;2.78;;;;;;;14.40;57.42;101920.91;5044422;28;20025;-84
2023/06/04 06:16:18;;;;;;;4.20;3.20;;;;;;;14.51;56.65;101925.78;5050754;23;20717;-67
2023/06/04 06:18:44;;;;;;;3.95;2.95;;;;;;;14.70;56.08;101937.28;5023994;28;20399;-67
2023/06/04 06:21:09;;;;;;;3.65;2.70;;;;;;;14.81;55.71;101932.25;5021849;28;20291;-67
2023/06/04 06:23:34;;;;;;;3.47;2.70;;;;;;;15.11;55.32;101929.78;5017288;28;20021;-67
2023/06/04 06:26:01;;;;;;;2.90;2.60;;;;;;;15.33;54.34;101937.53;5023436;28;20033;-67
2023/06/04 06:28:27;;;;;;;4.78;2.90;;;;;;;15.43;53.32;101938.81;5020671;28;20163;-67
2023/06/04 06:30:52;;;;;;;3.08;2.75;;;;;;;15.49;52.85;101947.47;5019629;28;20584;-67
2023/06/04 06:33:21;;;;;;;4.30;2.80;;;;;;;15.70;52.49;101940.97;5025002;28;20021;-67
2023/06/04 06:35:47;;;;;;;4.13;2.40;;;;;;;15.86;52.09;101949.91;5025200;28;20017;-67
2023/06/04 06:38:13;;;;;;;5.00;2.58;;;;;;;15.78;50.52;101949.44;5021467;28;20161;-68
2023/06/04 06:40:40;;;;;;;3.30;2.42;;;;;;;15.94;51.41;101953.03;5020751;28;20111;-68
2023/06/04 06:43:05;;;;;;;4.03;2.80;;;;;;;16.14;50.53;101945.69;5024793;28;20018;-67
2023/06/04 06:45:31;;;;;;;3.60;2.50;;;;;;;16.33;51.01;101954.41;5023421;28;20065;-67
2023/06/04 06:47:56;;;;;;;3.63;2.25;;;;;;;16.43;48.63;101947.56;5016920;28;20301;-67
2023/06/04 06:50:21;;;;;;;2.75;2.55;;;;;;;16.57;48.76;101945.88;5010821;28;20078;-68
2023/06/04 06:52:47;;;;;;;5.20;2.53;;;;;;;16.76;48.73;101948.38;5020378;28;20686;-67
2023/06/04 06:55:12;;;;;;;3.55;2.58;;;;;;;16.74;47.58;101944.91;5022883;28;20285;-67
2023/06/04 06:57:37;;;;;;;2.88;2.40;;;;;;;17.03;48.29;101948.56;5020823;28;20025;-70
2023/06/04 07:00:04;;;;;;;2.85;2.47;;;;;;;17.20;46.43;101958.28;5021719;28;20033;-70
2023/06/04 07:02:29;;;;;;;2.95;2.47;;;;;;;17.42;46.14;101959.56;5021993;28;20018;-70
2023/06/04 07:04:55;;;;;;;2.92;2.40;;;;;;;17.61;45.00;101955.72;5004483;28;20084;-69
2023/06/04 07:07:20;;;;;;;2.50;2.30;;;;;;;17.57;44.92;101960.44;5016689;28;20064;-69
2023/06/04 07:09:45;;;;;;;2.60;2.40;;;;;;;17.61;43.38;101961.97;5022878;28;20176;-70
2023/06/04 07:12:11;;;;;;;3.35;2.30;;;;;;;17.88;44.59;101964.78;4999204;28;20399;-69
2023/06/04 07:14:36;;;;;;;2.92;2.47;;;;;;;18.08;43.86;101968.88;5022950;28;20507;-70
2023/06/04 07:17:01;;;;;;;2.70;2.33;;;;;;;18.06;42.93;101964.59;5003992;28;20057;-70
2023/06/04 07:19:27;;;;;;;2.85;2.38;;;;;;;18.21;43.83;101958.19;5023662;28;20067;-70
2023/06/04 07:21:55;;;;;;;3.15;2.40;;;;;;;18.37;41.98;101964.28;5021804;28;20067;-69
2023/06/04 07:24:21;;;;;;;3.70;2.15;;;;;;;18.64;42.19;101963.41;5022569;28;20087;-71
2023/06/04 07:26:47;;;;;;;4.78;2.58;;;;;;;18.87;41.75;101957.38;5023982;28;20017;-70
2023/06/04 07:29:12;;;;;;;5.28;2.20;;;;;;;19.29;41.39;101960.78;5023799;28;20014;-70
2023/06/04 07:31:38;;;;;;;2.53;2.22;;;;;;;19.71;40.58;101964.13;5018685;28;20205;-70
2023/06/04 07:34:03;;;;;;;3.60;2.10;;;;;;;20.01;38.19;101952.09;5022759;28;20029;-70
2023/06/04 07:36:29;;;;;;;3.40;2.10;;;;;;;20.34;37.87;101963.09;5024761;28;20029;-70
2023/06/04 07:38:55;;;;;;;3.45;2.30;;;;;;;20.68;37.52;101962.44;5023737;28;20099;-69
2023/06/04 07:41:20;;;;;;;2.80;1.90;;;;;;;20.77;36.38;101965.31;5021609;28;20045;-70
2023/06/04 07:43:45;;;;;;;2.30;2.00;;;;;;;21.02;35.85;101958.88;5021870;28;20025;-70
2023/06/04 07:46:11;;;;;;;2.75;2.15;;;;;;;21.54;35.53;101964.81;5003275;28;20029;-69
2023/06/04 07:48:36;;;;;;;2.50;1.90;;;;;;;21.97;34.75;101972.19;5022575;28;20037;-71
2023/06/04 07:51:04;;;;;;;2.58;2.00;;;;;;;22.11;33.42;101963.78;5020109;28;20075;-69
2023/06/04 07:53:29;;;;;;;2.28;1.70;;;;;;;22.50;32.62;101966.94;5020563;28;20057;-70
2023/06/04 07:55:56;;;;;;;5.53;2.10;;;;;;;22.78;31.84;101955.50;5003650;28;20056;-70
2023/06/04 07:58:22;;;;;;;3.78;1.83;;;;;;;22.93;32.53;101966.91;4987098;28;20021;-69
2023/06/04 08:00:47;;;;;;;3.92;1.92;;;;;;;23.19;31.48;101967.38;5018695;28;20491;-71
2023/06/04 08:03:15;;;;;;;3.22;1.70;;;;;;;23.76;32.09;101960.56;5020529;28;20022;-69
2023/06/04 08:05:40;;;;;;;2.88;2.00;;;;;;;24.27;30.35;101962.28;5020803;28;20037;-70
2023/06/04 08:08:06;;;;;;;4.28;1.90;;;;;;;24.33;29.54;101961.75;5017010;28;20455;-70
2023/06/04 08:10:31;;;;;;;4.00;1.90;;;;;;;24.47;29.79;101960.50;5021915;28;20029;-70
2023/06/04 08:12:57;;;;;;;2.47;1.88;;;;;;;25.20;28.70;101952.75;5021805;28;20278;-69
2023/06/04 08:15:23;;;;;;;2.05;1.70;;;;;;;25.59;28.32;101964.41;5022819;28;20657;-70
2023/06/04 08:17:48;;;;;;;3.55;1.65;;;;;;;25.91;28.07;101962.28;5022785;28;20042;-71
2023/06/04 08:20:14;;;;;;;2.30;1.80;;;;;;;26.22;26.16;101962.84;5021382;28;20044;-71
2023/06/04 08:22:40;;;;;;;2.67;1.67;;;;;;;26.44;25.94;101956.09;5021460;28;20029;-71
2023/06/04 08:25:08;;;;;;;3.42;1.73;;;;;;;26.65;23.86;101966.72;5025097;28;20072;-72
2023/06/04 08:27:34;;;;;;;3.42;1.40;;;;;;;26.81;25.08;101956.81;5020569;28;20040;-70
2023/06/04 08:30:00;;;;;;;2.60;1.38;;;;;;;26.89;24.46;101957.91;5016730;28;20029;-71
2023/06/04 08:32:25;;;;;;;2.35;1.65;;;;;;;27.23;23.56;101961.63;5022269;28;20029;-72
2023/06/04 08:34:50;;;;;;;3.33;1.55;;;;;;;27.77;24.26;101956.84;5021543;28;20032;-72
2023/06/04 08:37:17;;;;;;;2.78;1.38;;;;;;;28.17;22.29;101949.78;5005393;28;20026;-70
2023/06/04 08:39:42;;;;;;;2.45;1.40;;;;;;;28.70;21.63;101955.91;5005431;28;20026;-70
2023/06/04 08:42:15;;;;;;;3.25;1.67;;;;;;;28.70;21.43;101962.25;5022305;28;20029;-70
2023/06/04 08:44:43;;;;;;;3.20;1.55;;;;;;;28.59;21.75;101962.56;5020375;28;20486;-71
2023/06/04 08:47:11;;;;;;;3.47;1.20;;;;;;;28.82;21.40;101972.88;5017508;28;20029;-70
2023/06/04 08:49:40;;;;;;;2.35;1.50;;;;;;;28.92;20.56;101965.34;5016025;28;20073;-71
2023/06/04 08:52:07;;;;;;;2.20;1.33;;;;;;;29.04;20.72;101966.75;5021021;28;20106;-71
2023/06/04 08:54:33;;;;;;;3.20;1.50;;;;;;;29.64;20.39;101966.34;5020560;28;20255;-68
2023/06/04 08:57:00;;;;;;;1.85;1.50;;;;;;;30.26;19.79;101973.78;5015509;28;20102;-67
2023/06/04 08:59:27;;;;;;;2.25;1.45;;;;;;;29.85;18.13;101963.00;5015379;28;20036;-69
2023/06/04 09:01:53;;;;;;;2.38;1.30;;;;;;;30.67;19.37;101968.88;5001529;28;20562;-69
2023/06/04 09:04:19;;;;;;;2.75;1.45;;;;;;;31.08;19.17;101957.59;5020090;28;20245;-69
2023/06/04 09:06:46;;;;;;;1.73;1.50;;;;;;;30.98;17.96;101987.25;5021499;28;20026;-70
2023/06/04 09:09:14;;;;;;;1.58;1.20;;;;;;;31.03;18.54;101976.53;5019488;28;20056;-70
2023/06/04 09:12:00;;;;;;;2.58;1.33;;;;;;;31.46;19.23;101976.84;5020833;28;20121;-70
2023/06/04 09:14:26;;;;;;;2.63;1.27;;;;;;;31.64;17.23;101971.81;5017742;28;20026;-71
2023/06/04 09:16:54;;;;;;;1.42;1.30;;;;;;;31.60;17.42;101980.63;4999475;28;20049;-70
2023/06/04 09:19:21;;;;;;;1.63;1.20;;;;;;;31.72;17.44;101976.38;5018362;28;20030;-71
2023/06/04 09:21:50;;;;;;;1.50;1.20;;;;;;;31.88;17.07;101978.09;5018205;28;20030;-70
2023/06/04 09:24:16;;;;;;;2.70;1.20;;;;;;;31.70;16.58;101972.97;5017680;28;20096;-70
2023/06/04 09:26:41;;;;;;;1.58;1.10;;;;;;;31.81;15.80;101974.38;5020706;28;20033;-70
2023/06/04 09:29:06;;;;;;;1.30;1.10;;;;;;;31.79;16.50;101970.97;5019065;28;20108;-69
2023/06/04 09:31:37;;;;;;;3.58;1.40;;;;;;;31.93;16.21;101970.13;5022816;28;20057;-69
2023/06/04 09:34:03;;;;;;;3.13;1.45;;;;;;;32.41;15.96;101978.78;5021298;28;20057;-69
2023/06/04 09:36:35;;;;;;;3.08;1.20;;;;;;;32.71;15.98;101979.53;5022133;28;20369;-69
2023/06/04 09:39:02;;;;;;;1.85;1.08;;;;;;;32.92;15.60;101973.19;5017777;28;20052;-69
2023/06/04 09:41:28;;;;;;;1.73;1.20;;;;;;;33.02;14.97;101972.84;5015094;28;20029;-70
2023/06/04 09:44:12;;;;;;;1.75;1.10;;;;;;;33.37;15.96;101973.75;5021005;28;20045;-69
2023/06/04 09:46:37;;;;;;;1.38;1.00;;;;;;;33.44;15.38;101971.88;5021354;28;20037;-70
2023/06/04 09:49:04;;;;;;;1.83;1.20;;;;;;;32.90;15.01;101972.47;5020819;28;20116;-69
2023/06/04 09:51:31;;;;;;;2.17;1.00;;;;;;;32.95;15.18;101976.41;5020975;28;20031;-70
2023/06/04 09:53:58;;;;;;;1.65;1.13;;;;;;;32.86;14.95;101980.31;5025611;28;20342;-69
2023/06/04 09:56:26;;;;;;;1.10;1.00;;;;;;;32.81;15.72;101970.91;5024500;28;20027;-70
2023/06/04 09:59:00;;;;;;;2.65;1.10;;;;;;;32.87;15.38;101965.47;5024664;28;20104;-69
2023/06/04 10:01:26;;;;;;;2.70;1.10;;;;;;;33.49;15.75;101965.81;5024739;28;20030;-69
2023/06/04 10:03:53;;;;;;;2.63;1.30;;;;;;;33.80;14.74;101965.34;5020295;28;20025;-70
2023/06/04 10:06:23;;;;;;;2.50;1.42;;;;;;;33.59;14.96;101969.91;5024391;28;20095;-69
2023/06/04 10:08:50;;;;;;;1.67;1.05;;;;;;;33.62;14.82;101960.38;5020778;28;20095;-70
2023/06/04 10:11:26;;;;;;;1.10;0.90;;;;;;;33.70;15.10;101966.56;5026265;28;20029;-68
2023/06/04 10:13:56;;;;;;;2.70;1.20;;;;;;;33.79;14.26;101955.34;5023936;28;20030;-69
2023/06/04 10:16:25;;;;;;;3.28;1.17;;;;;;;33.90;14.30;101966.69;5017530;28;20429;-68
2023/06/04 10:18:54;;;;;;;2.60;0.93;;;;;;;33.96;14.61;101973.28;5025828;28;20100;-70
2023/06/04 10:21:21;;;;;;;1.65;1.00;;;;;;;33.72;14.18;101975.50;5021945;28;20037;-68
2023/06/04 10:23:47;;;;;;;3.47;1.00;;;;;;;33.82;14.35;101977.00;5025907;28;20220;-68
2023/06/04 10:26:15;;;;;;;2.05;1.10;;;;;;;34.59;13.94;101973.97;5023277;28;20045;-69
2023/06/04 10:28:41;;;;;;;3.30;1.10;;;;;;;35.54;13.38;101960.81;5019432;28;20427;-68
2023/06/04 10:31:09;;;;;;;1.17;0.90;;;;;;;36.25;13.17;101973.78;5007660;28;20101;-68
2023/06/04 10:33:34;;;;;;;1.33;0.95;;;;;;;36.18;12.50;101972.94;5024470;28;20037;-69
2023/06/04 10:36:15;;;;;;;1.23;1.00;;;;;;;36.96;13.18;101972.72;5021638;28;20078;-68
2023/06/04 10:38:48;;;;;;;1.83;0.90;;;;;;;36.34;14.03;101966.91;5019268;28;20029;-69
2023/06/04 10:41:16;;;;;;;2.40;1.13;;;;;;;36.71;13.25;101971.81;5020688;28;20100;-67
2023/06/04 10:43:42;;;;;;;1.65;1.00;;;;;;;36.76;12.52;101952.56;4996979;28;20072;-67
2023/06/04 10:46:15;;;;;;;1.48;1.35;;;;;;;36.82;13.29;101960.81;5022644;28;20327;-69
2023/06/04 10:48:47;;;;;;;;;;;;;;;38.76;12.91;101963.09;5022516;28;20498;-68
2023/06/04 10:51:13;;;;;;;1.52;1.17;;;;;;;37.79;12.74;101963.13;5019858;28;20177;-68
2023/06/04 10:53:38;;;;;;;1.27;0.93;;;;;;;37.38;11.86;101964.63;5020490;28;20121;-69
2023/06/04 10:56:04;;;;;;;1.95;1.10;;;;;;;36.65;12.41;101966.06;5021974;28;20037;-68
2023/06/04 10:58:33;;;;;;;1.67;0.95;;;;;;;36.61;12.74;101962.03;5021480;28;20040;-67
2023/06/04 11:00:59;;;;;;;2.42;1.10;;;;;;;37.31;12.89;101969.41;5023726;28;20040;-68
2023/06/04 11:03:35;;;;;;;1.63;1.08;;;;;;;37.46;13.09;101950.47;5024850;28;20017;-69
2023/06/04 11:06:01;;;;;;;1.10;1.00;;;;;;;37.38;12.29;101970.19;5023549;28;20195;-70
2023/06/04 11:08:30;;;;;;;4.28;1.30;;;;;;;36.91;12.50;101969.72;5022433;28;20503;-68
2023/06/04 11:10:56;;;;;;;2.55;1.00;;;;;;;36.35;12.29;101964.97;5017117;28;20032;-68
2023/06/04 11:13:28;;;;;;;2.47;1.20;;;;;;;36.54;12.70;101965.97;5023226;28;20017;-69
2023/06/04 11:15:53;;;;;;;1.88;1.20;;;;;;;37.32;11.75;101959.97;5022432;28;20032;-68
2023/06/04 11:18:21;;;;;;;1.30;1.00;;;;;;;36.83;12.16;101950.56;5001709;28;20124;-68
2023/06/04 11:20:48;;;;;;;5.32;1.13;;;;;;;36.96;12.35;101952.44;5022521;28;20029;-69